Abbeville, GA

3:57 AM EDT on April 19, 2015 (GMT -0400)
Abbeville, GA | | Change Station
CLOSE
Current Station
Personal Weather Station
Location: Abbeville, GA
Elevation: 253 ft
Nearby Weather Stations

Elev 253 ft 32.00 °N, 83.32 °W | Updated 32 seconds ago

Mostly Cloudy
Mostly Cloudy
68.9 °F
Feels Like 68.9 °F
N
2.2
Wind Variable Wind from ESE

Today
High -- | Low -- °F
--% Chance of Precip.
Yesterday
High -- | Low -- °F
Precip. -- in
7:00 AM 8:05 PM
New Moon, 0% visible
Pressure 29.93 in
Visibility 7.0 miles
Clouds Scattered Clouds 2800 ft
Scattered Clouds 12000 ft
Dew Point 68 °F
Humidity 98%
Rainfall 0.00 in
Snow Depth Not available.
UV 0 out of 12
Pollen 9.00 out of 12
Air Quality Not available.
Flu Activity Sporadic
METAR KEZM 190735Z AUTO 00000KT 7SM SCT028 SCT120 21/21 A2993 RMK AO2 T02070207

More Conditions Fewer Conditions

Pressure 29.93 in
Visibility 7.0 miles
Clouds Scattered Clouds 2800 ft
Scattered Clouds 12000 ft
Dew Point 68 °F
Humidity 98%
Rainfall 0.00 in
Snow Depth Not available.
UV 0 out of 12
Pollen 9.00 out of 12
Air Quality Not available.
Flu Activity Sporadic
METAR KEZM 190735Z AUTO 00000KT 7SM SCT028 SCT120 21/21 A2993 RMK AO2 T02070207

More Conditions Fewer Conditions

10-Day Weather Forecast

Almanac

Astronomy

Apr. 19, 2015 Rise Set
Actual Time
Civil Twilight
Nautical Twilight
Astronomical Twilight
Moon
Length of Visible Light
Length of Day
Tomorrow will be .
, % of the Moon is Illuminated

Today's Extremes

State Highs State Lows

Community

WunderPhotos

Upload Photos

1,814,723 photos uploaded!

WunderBlogs® & News

Nearby

Air Quality

  Air Quality AQ Index Pollutant
Not available.

Snow Depth

Station Depth Elevation

Earthquake Activity

City Distance Mag. Time & Date
Minimum magnitude displayed is 2.5.

Coastal Water Temperatures

Place Temperature

Stations

Nearby Weather Stations

Station Location Temp. Windchill Dew Point Humidity Wind Precip. Elev Updated Type